createdAt,value
2018-12-13T00:00:40.569Z,1.60
2018-12-13T00:03:08.741Z,1.50
2018-12-13T00:05:36.912Z,1.50
2018-12-13T00:08:05.100Z,1.50
2018-12-13T00:10:33.260Z,1.50
2018-12-13T00:13:01.453Z,1.50
2018-12-13T00:15:31.973Z,1.40
2018-12-13T00:18:00.197Z,1.50
2018-12-13T00:20:28.421Z,1.50
2018-12-13T00:22:56.604Z,1.50
2018-12-13T00:25:24.757Z,1.40
2018-12-13T00:27:52.929Z,1.40
2018-12-13T00:30:21.120Z,1.40
2018-12-13T00:32:49.245Z,1.40
2018-12-13T00:35:17.451Z,1.40
2018-12-13T00:37:45.757Z,1.40
2018-12-13T00:40:13.905Z,1.40
2018-12-13T00:42:42.069Z,1.30
2018-12-13T00:45:10.280Z,1.40
2018-12-13T00:47:38.438Z,1.40
2018-12-13T00:50:06.596Z,1.30
2018-12-13T00:52:34.796Z,1.40
2018-12-13T00:55:02.943Z,1.30
2018-12-13T00:57:31.113Z,1.40
2018-12-13T00:59:59.313Z,1.40
2018-12-13T01:02:27.561Z,1.40
2018-12-13T01:04:55.736Z,1.40
2018-12-13T01:07:23.940Z,1.40
2018-12-13T01:09:52.084Z,1.30
2018-12-13T01:12:20.257Z,1.40
2018-12-13T01:14:48.448Z,1.30
2018-12-13T01:17:16.611Z,1.30
2018-12-13T01:19:44.778Z,1.30
2018-12-13T01:22:13.001Z,1.40
2018-12-13T01:24:41.228Z,1.40
2018-12-13T01:27:09.401Z,1.40
2018-12-13T01:29:37.651Z,1.40
2018-12-13T01:32:05.849Z,1.30
2018-12-13T01:34:34.028Z,1.30
2018-12-13T01:37:02.225Z,1.30
2018-12-13T01:39:30.481Z,1.30
2018-12-13T01:41:58.648Z,1.30
2018-12-13T01:44:27.513Z,1.30
2018-12-13T01:46:55.716Z,1.30
2018-12-13T01:49:23.889Z,1.20
2018-12-13T01:51:52.080Z,1.20
2018-12-13T01:54:20.232Z,1.20
2018-12-13T01:56:48.409Z,1.20
2018-12-13T01:59:16.600Z,1.20
2018-12-13T02:01:44.753Z,1.10
2018-12-13T02:04:12.940Z,1.20
2018-12-13T02:06:41.139Z,1.20
2018-12-13T02:09:09.378Z,1.10
2018-12-13T02:11:37.549Z,1.10
2018-12-13T02:14:05.752Z,1.10
2018-12-13T02:16:33.900Z,1.10
2018-12-13T02:19:02.075Z,1.10
2018-12-13T02:21:30.373Z,1.10
2018-12-13T02:23:58.531Z,1.00
2018-12-13T02:26:26.796Z,1.00
2018-12-13T02:28:55.036Z,0.90
2018-12-13T02:31:23.248Z,1.00
2018-12-13T02:33:51.836Z,1.00
2018-12-13T02:36:20.134Z,0.90
2018-12-13T02:38:48.385Z,1.00
2018-12-13T02:41:16.512Z,0.90
2018-12-13T02:43:44.748Z,0.90
2018-12-13T02:46:12.900Z,1.00
2018-12-13T02:48:41.076Z,0.90
2018-12-13T02:51:09.309Z,0.90
2018-12-13T02:53:37.528Z,0.80
2018-12-13T02:56:05.722Z,0.70
2018-12-13T02:58:34.004Z,0.70
2018-12-13T03:01:02.146Z,0.70
2018-12-13T03:03:30.325Z,0.70
2018-12-13T03:05:58.520Z,0.70
2018-12-13T03:08:26.675Z,0.80
2018-12-13T03:10:54.948Z,0.70
2018-12-13T03:13:23.161Z,0.70
2018-12-13T03:15:51.389Z,0.70
2018-12-13T03:18:19.565Z,0.60
2018-12-13T03:20:47.759Z,0.60
2018-12-13T03:23:15.909Z,0.60
2018-12-13T03:25:44.184Z,0.60
2018-12-13T03:28:12.385Z,0.60
2018-12-13T03:30:40.734Z,0.60
2018-12-13T03:33:08.918Z,0.60
2018-12-13T03:35:37.224Z,0.50
2018-12-13T03:38:05.465Z,0.50
2018-12-13T03:40:33.658Z,0.50
2018-12-13T03:43:01.855Z,0.50
2018-12-13T03:45:30.117Z,0.40
2018-12-13T03:47:58.364Z,0.50
2018-12-13T03:50:26.578Z,0.50
2018-12-13T03:52:54.808Z,0.50
2018-12-13T03:55:22.989Z,0.50
2018-12-13T03:57:52.060Z,0.50
2018-12-13T04:00:20.260Z,0.50
2018-12-13T04:02:48.472Z,0.50
2018-12-13T04:05:16.733Z,0.40
2018-12-13T04:07:44.970Z,0.40
2018-12-13T04:10:13.260Z,0.40
2018-12-13T04:12:41.472Z,0.40
2018-12-13T04:15:09.701Z,0.40
2018-12-13T04:17:37.905Z,0.40
2018-12-13T04:20:06.117Z,0.40
2018-12-13T04:22:34.326Z,0.40
2018-12-13T04:25:02.498Z,0.40
2018-12-13T04:27:30.697Z,0.40
2018-12-13T04:29:58.950Z,0.40
2018-12-13T04:32:27.121Z,0.40
2018-12-13T04:34:55.285Z,0.40
2018-12-13T04:37:23.469Z,0.40
2018-12-13T04:39:51.636Z,0.30
2018-12-13T04:42:19.850Z,0.30
2018-12-13T04:44:47.989Z,0.40
2018-12-13T04:47:16.330Z,0.40
2018-12-13T04:49:44.566Z,0.40
2018-12-13T04:52:12.745Z,0.40
2018-12-13T04:54:40.914Z,0.50
2018-12-13T04:57:09.113Z,0.50
2018-12-13T04:59:37.336Z,0.50
2018-12-13T05:02:05.516Z,0.50
2018-12-13T05:04:33.816Z,0.50
2018-12-13T05:07:01.969Z,0.50
2018-12-13T05:09:30.141Z,0.50
2018-12-13T05:11:59.104Z,0.60
2018-12-13T05:14:27.237Z,0.60
2018-12-13T05:16:55.468Z,0.60
2018-12-13T05:19:23.672Z,0.60
2018-12-13T05:21:51.832Z,0.50
2018-12-13T05:24:20.096Z,0.50
2018-12-13T05:26:48.304Z,0.50
2018-12-13T05:29:16.449Z,0.50
2018-12-13T05:31:44.630Z,0.50
2018-12-13T05:34:12.800Z,0.50
2018-12-13T05:36:40.974Z,0.50
2018-12-13T05:39:09.149Z,0.50
2018-12-13T05:41:37.360Z,0.50
2018-12-13T05:44:05.596Z,0.50
2018-12-13T05:46:33.764Z,0.50
2018-12-13T05:51:35.438Z,0.50
2018-12-13T05:54:03.607Z,0.50
2018-12-13T05:56:31.812Z,0.50
2018-12-13T05:59:00.057Z,0.50
2018-12-13T06:01:28.249Z,0.40
2018-12-13T06:03:56.455Z,0.50
2018-12-13T06:06:24.676Z,0.50
2018-12-13T06:08:52.849Z,0.50
2018-12-13T06:11:21.050Z,0.50
2018-12-13T06:13:49.236Z,0.60
2018-12-13T06:16:17.373Z,0.60
2018-12-13T06:18:45.581Z,0.60
2018-12-13T06:21:13.813Z,0.60
2018-12-13T06:23:41.996Z,0.60
2018-12-13T06:26:10.188Z,0.60
2018-12-13T06:28:38.346Z,0.60
2018-12-13T06:31:06.508Z,0.60
2018-12-13T06:33:34.710Z,0.60
2018-12-13T06:36:03.036Z,0.70
2018-12-13T06:38:31.232Z,0.70
2018-12-13T06:40:59.445Z,0.70
2018-12-13T06:43:27.681Z,0.70
2018-12-13T06:45:55.869Z,0.70
2018-12-13T06:48:24.056Z,0.60
2018-12-13T06:50:52.217Z,0.60
2018-12-13T06:53:20.532Z,0.60
2018-12-13T06:55:48.789Z,0.60
2018-12-13T06:58:16.929Z,0.60
2018-12-13T07:00:45.096Z,0.60
2018-12-13T07:03:13.388Z,0.60
2018-12-13T07:05:41.551Z,0.60
2018-12-13T07:08:09.729Z,0.60
2018-12-13T07:10:37.920Z,0.70
2018-12-13T07:13:06.068Z,0.70
2018-12-13T07:15:34.246Z,0.70
2018-12-13T07:18:02.443Z,0.70
2018-12-13T07:20:30.581Z,0.60
2018-12-13T07:22:58.790Z,0.70
2018-12-13T07:25:26.973Z,0.70
2018-12-13T07:27:55.105Z,0.70
2018-12-13T07:30:23.306Z,0.70
2018-12-13T07:32:51.480Z,0.70
2018-12-13T07:35:19.609Z,0.70
2018-12-13T07:37:47.797Z,0.70
2018-12-13T07:40:16.009Z,0.70
2018-12-13T07:42:44.140Z,0.80
2018-12-13T07:45:12.316Z,0.80
2018-12-13T07:47:40.529Z,0.80
2018-12-13T07:50:08.689Z,0.80
2018-12-13T07:52:36.840Z,0.80
2018-12-13T07:55:05.080Z,0.80
2018-12-13T07:57:33.292Z,0.80
2018-12-13T08:00:01.464Z,0.90
2018-12-13T08:02:29.669Z,0.90
2018-12-13T08:04:57.912Z,0.90
2018-12-13T08:07:26.080Z,1.00
2018-12-13T08:09:54.297Z,1.00
2018-12-13T08:12:22.451Z,1.10
2018-12-13T08:14:50.604Z,1.10
2018-12-13T08:17:18.948Z,1.20
2018-12-13T08:19:47.198Z,1.20
2018-12-13T08:22:15.369Z,1.20
2018-12-13T08:24:43.573Z,1.20
2018-12-13T08:27:11.817Z,1.20
2018-12-13T08:29:39.998Z,1.30
2018-12-13T08:32:08.298Z,1.30
2018-12-13T08:34:36.548Z,1.40
2018-12-13T08:37:04.812Z,1.40
2018-12-13T08:39:33.020Z,1.30
2018-12-13T08:42:01.264Z,1.30
2018-12-13T08:44:29.527Z,1.40
2018-12-13T08:46:57.747Z,1.30
2018-12-13T08:49:25.988Z,1.40
2018-12-13T08:51:54.165Z,1.30
2018-12-13T08:54:22.373Z,1.40
2018-12-13T08:56:50.613Z,1.30
2018-12-13T08:59:18.864Z,1.30
2018-12-13T09:01:47.100Z,1.40
2018-12-13T09:04:15.344Z,1.40
2018-12-13T09:06:43.508Z,1.40
2018-12-13T09:09:11.713Z,1.40
2018-12-13T09:11:39.965Z,1.40
2018-12-13T09:14:08.133Z,1.40
2018-12-13T09:16:36.456Z,1.50
2018-12-13T09:19:04.685Z,1.40
2018-12-13T09:21:32.875Z,1.40
2018-12-13T09:24:01.162Z,1.40
2018-12-13T09:26:29.408Z,1.40
2018-12-13T09:28:57.584Z,1.50
2018-12-13T09:31:25.777Z,1.50
2018-12-13T09:33:54.033Z,1.50
2018-12-13T09:36:22.196Z,1.40
2018-12-13T09:38:50.417Z,1.50
2018-12-13T09:41:18.648Z,1.40
2018-12-13T09:43:46.821Z,1.40
2018-12-13T09:46:15.138Z,1.40
2018-12-13T09:48:43.673Z,1.40
2018-12-13T09:51:11.873Z,1.40
2018-12-13T09:53:40.167Z,1.40
2018-12-13T09:56:08.408Z,1.40
2018-12-13T09:58:36.580Z,1.50
2018-12-13T10:01:04.793Z,1.50
2018-12-13T10:03:33.136Z,1.50
2018-12-13T10:06:01.309Z,1.60
2018-12-13T10:08:29.509Z,1.60
2018-12-13T10:10:57.759Z,1.60
2018-12-13T10:13:25.937Z,1.60
2018-12-13T10:15:54.132Z,1.60
2018-12-13T10:18:22.381Z,1.60
2018-12-13T10:20:50.556Z,1.50
2018-12-13T10:23:18.764Z,1.60
2018-12-13T10:25:47.011Z,1.60
2018-12-13T10:28:15.185Z,1.60
2018-12-13T10:30:43.481Z,1.60
2018-12-13T10:33:11.765Z,1.70
2018-12-13T10:35:39.926Z,1.70
2018-12-13T10:38:08.201Z,1.70
2018-12-13T10:40:36.452Z,1.70
2018-12-13T10:43:04.622Z,1.70
2018-12-13T10:45:32.930Z,1.70
2018-12-13T10:48:01.194Z,1.70
2018-12-13T10:50:29.453Z,1.70
2018-12-13T10:52:57.689Z,1.70
2018-12-13T10:55:26.015Z,1.70
2018-12-13T10:57:54.189Z,1.70
2018-12-13T11:00:27.804Z,1.70
2018-12-13T11:03:19.712Z,1.70
2018-12-13T11:05:47.939Z,1.80
2018-12-13T11:08:16.157Z,1.80
2018-12-13T11:10:44.336Z,1.80
2018-12-13T11:13:12.534Z,1.80
2018-12-13T11:15:40.787Z,1.80
2018-12-13T11:18:09.065Z,1.70
2018-12-13T11:20:37.253Z,1.80
2018-12-13T11:23:05.520Z,1.80
2018-12-13T11:25:33.891Z,1.70
2018-12-13T11:28:14.373Z,1.80
2018-12-13T11:30:42.629Z,1.80
2018-12-13T11:33:10.793Z,1.80
2018-12-13T11:35:38.977Z,1.80
2018-12-13T11:38:07.144Z,1.70
2018-12-13T11:40:35.324Z,1.70
2018-12-13T11:43:03.539Z,1.70
2018-12-13T11:45:31.901Z,1.60
2018-12-13T11:48:00.164Z,1.70
2018-12-13T11:50:28.457Z,1.70
2018-12-13T11:52:56.705Z,1.70
2018-12-13T11:55:33.877Z,1.80
2018-12-13T11:58:02.517Z,1.70
2018-12-13T12:00:30.736Z,1.70
2018-12-13T12:02:58.949Z,1.70
2018-12-13T12:05:27.227Z,1.70
2018-12-13T12:07:55.485Z,1.70
2018-12-13T12:10:23.782Z,1.80
2018-12-13T12:12:52.040Z,1.70
2018-12-13T12:15:20.292Z,1.70
2018-12-13T12:17:48.598Z,1.70
2018-12-13T12:20:16.850Z,1.80
2018-12-13T12:22:45.020Z,1.80
2018-12-13T12:25:13.240Z,1.80
2018-12-13T12:27:41.493Z,1.80
2018-12-13T12:30:09.752Z,1.80
2018-12-13T12:33:41.429Z,1.80
2018-12-13T12:36:09.593Z,1.80
2018-12-13T12:38:37.864Z,1.80
2018-12-13T12:41:06.084Z,1.80
2018-12-13T12:43:34.313Z,1.80
2018-12-13T12:46:02.589Z,1.80
2018-12-13T12:48:30.877Z,1.80
2018-12-13T12:50:59.124Z,1.80
2018-12-13T12:53:27.306Z,1.80
2018-12-13T12:55:55.617Z,1.80
2018-12-13T12:58:23.916Z,1.80
2018-12-13T13:00:52.166Z,1.80
2018-12-13T13:03:20.428Z,1.80
2018-12-13T13:05:48.884Z,1.80
2018-12-13T13:08:17.064Z,1.80
2018-12-13T13:10:45.263Z,1.90
2018-12-13T13:13:13.504Z,1.80
2018-12-13T13:15:41.764Z,1.80
2018-12-13T13:18:10.005Z,1.80
2018-12-13T13:20:38.245Z,1.90
2018-12-13T13:23:06.408Z,1.90
2018-12-13T13:25:34.918Z,2.00
2018-12-13T13:28:03.165Z,2.00
2018-12-13T13:30:31.380Z,2.00
2018-12-13T13:32:59.697Z,2.00
2018-12-13T13:35:27.889Z,2.00
2018-12-13T13:37:56.066Z,2.00
2018-12-13T13:40:24.300Z,2.00
2018-12-13T13:42:52.529Z,2.00
2018-12-13T13:45:21.201Z,2.00
2018-12-13T13:47:49.501Z,2.10
2018-12-13T13:50:17.761Z,2.10
2018-12-13T13:52:45.941Z,2.10
2018-12-13T13:55:14.132Z,2.00
2018-12-13T13:57:42.365Z,2.10
2018-12-13T14:00:10.544Z,2.10
2018-12-13T14:02:38.752Z,2.00
2018-12-13T14:05:07.001Z,2.00
2018-12-13T14:07:35.265Z,2.00
2018-12-13T14:10:03.580Z,2.00
2018-12-13T14:13:34.901Z,2.00
2018-12-13T14:16:03.100Z,2.00
2018-12-13T14:18:32.277Z,2.00
2018-12-13T14:21:00.474Z,2.00
2018-12-13T14:23:28.765Z,2.00
2018-12-13T14:25:57.092Z,2.00
2018-12-13T14:28:25.268Z,2.00
2018-12-13T14:30:53.478Z,2.00
2018-12-13T14:33:21.726Z,2.00
2018-12-13T14:35:49.889Z,1.90
2018-12-13T14:38:18.092Z,1.90
2018-12-13T14:40:46.232Z,1.90
2018-12-13T14:43:14.404Z,1.90
2018-12-13T14:45:42.668Z,1.90
2018-12-13T14:48:10.961Z,1.90
2018-12-13T14:50:39.241Z,1.90
2018-12-13T14:53:07.435Z,1.90
2018-12-13T14:55:35.684Z,1.90
2018-12-13T14:58:03.869Z,1.90
2018-12-13T15:00:32.125Z,1.80
2018-12-13T15:03:00.317Z,1.80
2018-12-13T15:05:28.493Z,1.80
2018-12-13T15:07:56.729Z,1.70
2018-12-13T15:10:24.953Z,1.70
2018-12-13T15:12:53.217Z,1.70
2018-12-13T15:15:21.508Z,1.70
2018-12-13T15:17:49.835Z,1.70
2018-12-13T15:20:18.153Z,1.60
2018-12-13T15:22:46.362Z,1.60
2018-12-13T15:25:14.593Z,1.60
2018-12-13T15:27:42.778Z,1.60
2018-12-13T15:30:11.013Z,1.60
2018-12-13T15:32:39.229Z,1.60
2018-12-13T15:35:07.380Z,1.60
2018-12-13T15:37:35.560Z,1.60
2018-12-13T15:40:03.740Z,1.60
2018-12-13T15:42:31.923Z,1.60
2018-12-13T15:45:00.118Z,1.60
2018-12-13T15:47:28.401Z,1.50
2018-12-13T15:49:56.637Z,1.50
2018-12-13T15:52:24.843Z,1.50
2018-12-13T15:54:53.090Z,1.50
2018-12-13T15:57:21.362Z,1.50
2018-12-13T15:59:49.557Z,1.50
2018-12-13T16:02:17.810Z,1.50
2018-12-13T16:04:46.089Z,1.50
2018-12-13T16:07:14.285Z,1.40
2018-12-13T16:09:42.549Z,1.40
2018-12-13T16:12:10.833Z,1.40
2018-12-13T16:14:39.162Z,1.30
2018-12-13T16:17:07.364Z,1.30
2018-12-13T16:19:35.544Z,1.30
2018-12-13T16:22:03.853Z,1.40
2018-12-13T16:24:32.076Z,1.40
2018-12-13T16:27:00.267Z,1.40
2018-12-13T16:29:28.462Z,1.30
2018-12-13T16:31:56.708Z,1.40
2018-12-13T16:34:24.896Z,1.30
2018-12-13T16:36:53.197Z,1.30
2018-12-13T16:39:21.469Z,1.30
2018-12-13T16:41:49.722Z,1.30
2018-12-13T16:44:18.260Z,1.30
2018-12-13T16:46:46.500Z,1.20
2018-12-13T16:49:14.752Z,1.20
2018-12-13T16:51:43.057Z,1.10
2018-12-13T16:54:11.329Z,1.20
2018-12-13T16:56:40.512Z,1.10
2018-12-13T16:59:08.809Z,1.20
2018-12-13T17:01:37.053Z,1.20
2018-12-13T17:04:05.315Z,1.20
2018-12-13T17:06:33.537Z,1.30
2018-12-13T17:09:01.858Z,1.20
2018-12-13T17:11:30.066Z,1.30
2018-12-13T17:13:58.352Z,1.20
2018-12-13T17:16:26.613Z,1.20
2018-12-13T17:18:54.821Z,1.20
2018-12-13T17:21:23.076Z,1.20
2018-12-13T17:23:51.326Z,1.20
2018-12-13T17:26:19.505Z,1.30
2018-12-13T17:28:47.700Z,1.20
2018-12-13T17:31:15.847Z,1.20
2018-12-13T17:33:44.021Z,1.10
2018-12-13T17:36:12.261Z,1.10
2018-12-13T17:38:40.428Z,1.10
2018-12-13T17:41:08.648Z,1.10
2018-12-13T17:43:36.857Z,1.10
2018-12-13T17:46:05.088Z,1.10
2018-12-13T17:48:33.355Z,1.10
2018-12-13T17:51:01.677Z,1.00
2018-12-13T17:53:29.922Z,1.00
2018-12-13T17:55:58.089Z,1.00
2018-12-13T17:58:26.316Z,1.00
2018-12-13T18:00:54.541Z,1.00
2018-12-13T18:03:22.717Z,1.00
2018-12-13T18:05:50.969Z,0.90
2018-12-13T18:08:19.215Z,1.00
2018-12-13T18:10:47.603Z,1.00
2018-12-13T18:13:15.883Z,1.10
2018-12-13T18:15:44.140Z,1.10
2018-12-13T18:18:12.381Z,1.10
2018-12-13T18:20:40.605Z,1.00
2018-12-13T18:23:08.836Z,0.90
2018-12-13T18:25:37.132Z,0.90
2018-12-13T18:28:05.423Z,0.90
2018-12-13T18:30:33.676Z,0.90
2018-12-13T18:33:01.940Z,0.80
2018-12-13T18:35:30.229Z,0.80
2018-12-13T18:37:58.413Z,0.80
2018-12-13T18:40:26.677Z,0.80
2018-12-13T18:42:54.966Z,0.90
2018-12-13T18:45:24.076Z,1.00
2018-12-13T18:47:52.440Z,0.90
2018-12-13T18:50:20.839Z,0.90
2018-12-13T18:52:49.174Z,1.00
2018-12-13T18:55:17.450Z,1.00
2018-12-13T18:57:45.785Z,1.00
2018-12-13T19:00:14.005Z,1.00
2018-12-13T19:02:42.665Z,1.00
2018-12-13T19:05:10.883Z,1.00
2018-12-13T19:07:39.395Z,1.00
2018-12-13T19:10:07.620Z,1.00
2018-12-13T19:12:35.893Z,1.00
2018-12-13T19:15:04.930Z,0.90
2018-12-13T19:17:33.188Z,0.90
2018-12-13T19:20:01.450Z,0.90
2018-12-13T19:22:29.715Z,1.00
2018-12-13T19:24:57.893Z,1.00
2018-12-13T19:27:26.185Z,0.90
2018-12-13T19:29:54.730Z,0.90
2018-12-13T19:32:23.034Z,0.90
2018-12-13T19:34:52.120Z,0.90
2018-12-13T19:37:20.368Z,1.00
2018-12-13T19:39:48.549Z,0.90
2018-12-13T19:43:45.992Z,0.90
2018-12-13T19:46:14.169Z,0.80
2018-12-13T19:48:42.414Z,0.90
2018-12-13T19:51:10.851Z,0.80
2018-12-13T19:53:39.209Z,0.80
2018-12-13T19:56:07.417Z,0.90
2018-12-13T19:58:35.689Z,0.90
2018-12-13T20:01:03.936Z,1.00
2018-12-13T20:03:32.100Z,1.00
2018-12-13T20:06:00.324Z,1.00
2018-12-13T20:08:28.585Z,1.00
2018-12-13T20:10:56.936Z,0.90
2018-12-13T20:13:25.140Z,0.90
2018-12-13T20:15:53.383Z,1.00
2018-12-13T20:18:21.586Z,0.90
2018-12-13T20:20:49.941Z,0.90
2018-12-13T20:23:18.128Z,0.90
2018-12-13T20:25:46.389Z,0.90
2018-12-13T20:28:14.701Z,0.80
2018-12-13T20:30:43.252Z,0.90
2018-12-13T20:33:11.421Z,0.80
2018-12-13T20:35:39.622Z,0.90
2018-12-13T20:38:07.868Z,0.80
2018-12-13T20:40:36.060Z,0.80
2018-12-13T20:43:04.356Z,0.80
2018-12-13T20:45:32.592Z,0.80
2018-12-13T20:48:00.764Z,0.90
2018-12-13T20:50:28.972Z,0.80
2018-12-13T20:52:57.217Z,0.80
2018-12-13T20:55:25.498Z,0.80
2018-12-13T20:57:53.701Z,0.90
2018-12-13T21:00:22.004Z,0.90
2018-12-13T21:02:50.213Z,0.90
2018-12-13T21:05:18.409Z,0.90
2018-12-13T21:07:47.011Z,0.90
2018-12-13T21:10:15.343Z,0.90
2018-12-13T21:12:43.666Z,0.90
2018-12-13T21:15:11.904Z,0.90
2018-12-13T21:17:40.076Z,0.90
2018-12-13T21:20:08.378Z,0.90
2018-12-13T21:22:36.620Z,0.90
2018-12-13T21:25:04.830Z,0.90
2018-12-13T21:27:33.092Z,0.90
2018-12-13T21:30:01.344Z,0.80
2018-12-13T21:32:29.524Z,0.80
2018-12-13T21:34:57.832Z,0.90
2018-12-13T21:37:25.969Z,0.90
2018-12-13T21:39:54.117Z,0.90
2018-12-13T21:42:22.354Z,0.90
2018-12-13T21:44:50.601Z,0.90
2018-12-13T21:47:18.769Z,0.90
2018-12-13T21:49:46.964Z,0.90
2018-12-13T21:52:15.213Z,0.90
2018-12-13T21:54:43.493Z,0.80
2018-12-13T21:57:12.098Z,0.80
2018-12-13T21:59:40.372Z,0.90
2018-12-13T22:02:08.633Z,0.80
2018-12-13T22:04:36.835Z,0.80
2018-12-13T22:07:05.125Z,0.80
2018-12-13T22:09:33.369Z,0.80
2018-12-13T22:12:01.532Z,0.90
2018-12-13T22:14:29.669Z,0.80
2018-12-13T22:16:57.837Z,0.80
2018-12-13T22:19:26.052Z,0.80
2018-12-13T22:21:54.204Z,0.80
2018-12-13T22:24:22.969Z,0.80
2018-12-13T22:26:51.186Z,0.70
2018-12-13T22:29:19.320Z,0.80
2018-12-13T22:31:47.676Z,0.80
2018-12-13T22:34:15.913Z,0.80
2018-12-13T22:36:44.049Z,0.70
2018-12-13T22:39:12.157Z,0.80
2018-12-13T22:41:40.318Z,0.70
2018-12-13T22:44:08.507Z,0.80
2018-12-13T22:46:36.645Z,0.70
2018-12-13T22:49:04.873Z,0.70
2018-12-13T22:53:02.388Z,0.70
2018-12-13T22:55:30.721Z,0.70
2018-12-13T22:57:58.940Z,0.80
2018-12-13T23:00:27.226Z,0.80
2018-12-13T23:02:55.416Z,0.80
2018-12-13T23:05:23.568Z,0.80
2018-12-13T23:07:51.827Z,0.70
2018-12-13T23:10:20.033Z,0.70
2018-12-13T23:12:48.280Z,0.70
2018-12-13T23:15:16.519Z,0.80
2018-12-13T23:17:45.873Z,0.80
2018-12-13T23:20:25.311Z,0.80
2018-12-13T23:22:53.641Z,0.70
2018-12-13T23:25:21.840Z,0.80
2018-12-13T23:27:50.013Z,0.80
2018-12-13T23:30:18.212Z,0.70
2018-12-13T23:32:46.738Z,0.80
2018-12-13T23:35:14.941Z,0.80
2018-12-13T23:37:43.149Z,0.80
2018-12-13T23:40:11.256Z,0.80
2018-12-13T23:42:39.460Z,0.80
2018-12-13T23:45:07.671Z,0.80
2018-12-13T23:47:35.817Z,0.70
2018-12-13T23:50:04.085Z,0.70
2018-12-13T23:52:32.303Z,0.70
2018-12-13T23:55:00.546Z,0.70
2018-12-13T23:57:28.705Z,0.70
2018-12-13T23:59:56.904Z,0.70
